• Join FlightAware (Why Join?)
  • Login
  • US Flag 
05:17AM EST


 

Airport Tracker/Info


-or-


 

Live Flight TrackerFlight Track Log ✈ DAL1034 ✈ 31-Aug-2013 ✈ KPBI - KATL

Flight Track Log - Related Links

Times and Time Zones

All times are in EDT time to prevent confusion due to time zone crossing. See the DAL1034 flight status page for this flight to view local times or setup timezone preferences in your user account.

Time Position Orientation Groundspeed Altitude Reporting Facility
EDT Latitude Longitude Course Direction KTS MPH feet Rate Location/Type
05:56PM 26.8245 -80.1550 279° West  Level FlightAware Approximate
05:56PM 26.7208 -79.9175 53° Northeast 276 318 6,600  Level Miami Center
05:57PM 26.8500 -80.2815 270° West  Level FlightAware Approximate
05:57PM 26.7783 -79.8700 36° Northeast 283 326 9,200  Level Miami Center
05:58PM 26.9291 -80.3557 338° Northwest  Level FlightAware Approximate
05:58PM 26.8658 -79.8769 356° North 294 338 11,000  Level Miami Center
05:59PM 27.0382 -80.4060 338° Northwest  Level FlightAware Approximate
05:59PM 26.9803 -79.9008 349° North 333 383 12,800  Level Miami Center
06:00PM 27.1445 -80.4612 318° Northwest  Level FlightAware Approximate
06:00PM 27.0947 -79.9203 351° North 399 459 16,400  Level Miami Center
06:01PM 27.1889 -79.9156 North 398 458 18,900 2,220 Climbing Miami Center
06:02PM 27.2997 -79.8975 North 391 450 20,900 1,860 Climbing Miami Center
06:03PM 27.4108 -79.8747 10° North 397 457 22,700 1,440 Climbing Miami Center
06:04PM 27.5350 -79.8311 17° North 414 476 23,800 900 Climbing Miami Center
06:05PM 27.6592 -79.7922 16° North 441 507 24,600 1,020 Climbing Miami Center
06:06PM 27.7853 -79.7461 18° North 465 535 25,900 1,260 Climbing Miami Center
06:07PM 27.9008 -79.7114 15° North 476 548 27,200 1,440 Climbing Miami Center
06:08PM 28.0331 -79.6678 16° North 476 548 28,800 1,800 Climbing Miami Center
06:09PM 28.1592 -79.6308 14° North 476 548 30,800 1,440 Climbing Miami Center
06:10PM 28.2728 -79.6856 337° Northwest 428 493 31,700 1,080 Climbing Miami Center
06:12PM 28.4678 -79.9008 316° Northwest 451 519 34,200 1,080 Climbing Jacksonville Center
06:13PM 28.5597 -80.0019 316° Northwest 451 519 35,000 360 Climbing Jacksonville Center
06:14PM 28.6497 -80.1011 316° Northwest 451 519 35,000  Level Jacksonville Center
06:15PM 28.7375 -80.2028 315° West 451 519 35,000  Level Jacksonville Center
06:16PM 28.8292 -80.3069 315° West 451 519 35,000  Level Jacksonville Center
06:17PM 28.9208 -80.4042 317° Northwest 451 519 35,000  Level Jacksonville Center
06:18PM 29.0128 -80.5089 315° West 451 519 35,000  Level Jacksonville Center
06:19PM 29.1042 -80.6136 315° West 456 525 35,000  Level Jacksonville Center
06:20PM 29.1981 -80.7208 315° West 461 531 35,000 -60 Level Jacksonville Center
06:21PM 29.2917 -80.8258 316° Northwest 466 536 34,900  Descending Jacksonville Center
06:22PM 29.4014 -80.9069 327° Northwest 467 537 35,000  Climbing Jacksonville Center
06:23PM 29.5067 -80.9572 337° Northwest 460 529 35,000  Level Jacksonville Center
06:24PM 29.6283 -81.0075 340° North 460 529 35,000  Level Jacksonville Center
06:25PM 29.7561 -81.0408 347° North 460 529 35,000  Level Jacksonville Center
06:26PM 29.8778 -81.0769 346° North 460 529 35,000  Level Jacksonville Center
06:27PM 30.0014 -81.1131 346° North 454 522 35,000  Level Jacksonville Center
06:28PM 30.1272 -81.1442 348° North 454 522 35,000  Level Jacksonville Center
06:29PM 30.2528 -81.1781 347° North 454 522 35,000  Level Jacksonville Center
06:30PM 30.3767 -81.2119 347° North 454 522 35,000  Level Jacksonville Center
06:31PM 30.5000 -81.2436 348° North 454 522 35,000  Level Jacksonville Center
06:32PM 30.6239 -81.2775 347° North 454 522 35,000  Level Jacksonville Center
06:33PM 30.7331 -81.3433 333° Northwest 442 509 35,000  Level Jacksonville Center
06:34PM 30.8364 -81.4264 325° Northwest 442 509 35,000  Level Jacksonville Center
06:35PM 30.9375 -81.5094 325° Northwest 442 509 35,000  Level Jacksonville Center
06:36PM 31.0386 -81.5931 325° Northwest 442 509 35,000  Level Jacksonville Center
06:37PM 31.1522 -81.6836 326° Northwest 442 509 35,000  Level Jacksonville Center
06:39PM 31.3831 -81.8619 327° Northwest 449 517 35,000  Level Atlanta Center
06:40PM 31.4825 -81.9447 325° Northwest 449 517 35,000  Level Atlanta Center
06:41PM 31.5819 -82.0253 325° Northwest 443 510 35,000  Level Atlanta Center
06:42PM 31.6833 -82.1061 326° Northwest 443 510 35,000  Level Atlanta Center
06:43PM 31.7828 -82.1894 325° Northwest 438 504 35,000  Level Atlanta Center
06:44PM 31.8842 -82.2706 326° Northwest 433 498 35,000  Level Atlanta Center
06:45PM 31.9856 -82.3542 325° Northwest 433 498 35,000  Level Atlanta Center
06:46PM 32.0767 -82.4481 319° Northwest 433 498 35,000 -240 Level Atlanta Center
06:47PM 32.1633 -82.5494 315° West 433 498 34,600 -1,020 Descending Atlanta Center
06:48PM 32.2522 -82.6511 316° Northwest 433 498 33,000 -1,800 Descending Atlanta Center
06:49PM 32.3411 -82.7556 315° West 444 511 31,100 -1,320 Descending Atlanta Center
06:50PM 32.4297 -82.8600 315° West 449 517 30,400 -720 Descending Atlanta Center
06:51PM 32.5183 -82.9647 315° West 449 517 29,700 -1,620 Descending Atlanta Center
06:52PM 32.6028 -83.0672 314° West 449 517 27,200 -2,640 Descending Atlanta Center
06:53PM 32.6911 -83.1700 316° Northwest 449 517 24,500 -2,340 Descending Atlanta Center
06:54PM 32.7753 -83.2731 314° West 444 511 22,600 -2,160 Descending Atlanta Center
06:55PM 32.8553 -83.3686 315° West 430 495 20,200 -2,460 Descending Atlanta Center
06:56PM 32.9350 -83.4647 315° West 412 474 17,700 -2,400 Descending Atlanta Center
06:57PM 33.0106 -83.5583 314° West 406 467 15,500 -1,860 Descending Atlanta Center
06:58PM 33.0797 -83.6472 313° West 382 440 14,000 -780 Descending Atlanta Center
06:59PM 33.1531 -83.7336 315° West 368 423 14,000  Level Atlanta Center
07:00PM 33.2158 -83.8078 315° West 362 417 14,000 -480 Level Atlanta Center
07:01PM 33.2703 -83.8897 308° West 335 386 13,100 -1,020 Descending Atlanta Center
07:02PM 33.3244 -83.9667 310° West 308 354 12,000 -600 Descending Atlanta Center
07:03PM 33.3767 -84.0464 308° West 302 348 12,000  Level Atlanta Center
07:04PM 33.4289 -84.1208 310° West 297 342 12,000  Level Atlanta Center
07:05PM 33.4667 -84.1833 306° West 296 341 12,000  Level Atlanta TRACON
07:06PM 33.5333 -84.2667 314° West 286 329 12,000 -420 Level Atlanta TRACON
07:07PM 33.5333 -84.3333 270° West 250 288 11,200 -1,140 Descending Atlanta TRACON
07:08PM 33.5333 -84.4167 270° West 256 295 9,800 -1,560 Descending Atlanta TRACON
07:09PM 33.5333 -84.5167 270° West 239 275 8,000 -1,500 Descending Atlanta TRACON
07:10PM 33.5333 -84.6000 270° West 231 266 6,600 -1,260 Descending Atlanta TRACON
07:11PM 33.5667 -84.6500 309° West 231 266 5,400 -1,320 Descending Atlanta TRACON
07:12PM 33.6000 -84.6167 40° Northeast 201 231 4,000 -1,260 Descending Atlanta TRACON
07:13PM 33.6333 -84.5667 51° Northeast 196 226 2,900 -1,080 Descending Atlanta TRACON
07:14PM 33.6333 -84.5000 90° East 176 203 2,000 -900 Descending Atlanta TRACON
07:15PM 33.6333 -84.4500 90° East 143 165 1,200 -840 Descending Atlanta TRACON